Airfield :
LOGIN :

Register | Disclaimer

   EN    FR    IT 

 










Legend :    VFR   Marginal VFR   IFR   Intensive IFR   Very Intensive IFR
Visi :
Ceiling :
>= 8 km
>= 3000ft
5 to 8 km
1000 to 3000 ft
1500m to 5 km
500 to 1000 ft
800 to 1500m
200 to 500 ft
< 800m
< 200 ft
Symbols :   Thunderstorms  Fog  Heavy snow  Heavy precipitations  Wind > 20 kt
SIGMETs :     Misc.  Thunderstorms  Icing  Turbulence  Mountain Waves  Volcanic Ashes






- Airport Elevation : 42 ft
- IATA code : KGD


UMKK - Khrabrava - Kaliningrad

CURRENT METAR :
  • 251230Z 26006MPS 9999 BKN015 07/04 Q0992 R24/290195 NOSIG RMK QFE743/0990

EXPIRED METARs :
  • 251200Z 24005MPS 9999 BKN012 07/05 Q0992 R24/290195 NOSIG RMK QFE743/0991
  • 251130Z 22005MPS 180V250 9999 SCT009 BKN015 06/05 Q0992 R24/290195 NOSIG RMK QFE743/0991
  • 251100Z 20004MPS 9999 BKN006 BKN014CB 05/04 Q0992 R24/290195 NOSIG RMK QBB180 OBST OBSC QFE743/0991
  • 251030Z 18003MPS 160V220 9000 BKN006 BKN014CB 04/03 Q0993 R24/290195 NOSIG RMK QBB180 OBST OBSC QFE743/0991
  • 251000Z 17004MPS 140V200 9999 BKN006 BKN014CB 03/02 Q0993 R24/290195 NOSIG RMK QBB180 OBST OBSC QFE743/0991

TAF TAF UMKK
Valid from the 25 at 12:00 until the 26 at 12:00 UTC


251057Z 2512/2612 25007G12MPS 3100 -SHRA BR BKN006 BKN011CB
BECMG 2513/2514 7000 NSW BKN011 SCT020CB
TEMPO 2514/2606 3100 -SHRA BR FEW005 BKN013CB
BECMG 2514/2516 21003G08MPS
BECMG 2520/2522 22006G12MPS
BECMG 2606/2608 22010G15MPS



MET'MAP, your aeronautical weather chart ! - Copyright ORBIFLY December 2007 - Disclaimer

ORBIFLY MET'MAP TEAM :

Programming & Development : Alexandra Zaïnal
Concept & original design : Baudouin d'Aumeries
Assistance for programming : Marc-Olivier Méhu
Technical & hardware support : Manuel Goepfert

Contact : metmap@orbifly.com




SOURCES & CREDITS :

   NOAA